createdAt,value
2023-08-17T00:01:35.465Z,78.10
2023-08-17T00:04:02.322Z,78.20
2023-08-17T00:06:30.357Z,78.10
2023-08-17T00:08:57.123Z,78.20
2023-08-17T00:11:23.898Z,78.20
2023-08-17T00:13:50.597Z,78.10
2023-08-17T00:16:17.948Z,78.20
2023-08-17T00:18:44.713Z,78.20
2023-08-17T00:21:11.505Z,78.10
2023-08-17T00:23:38.160Z,78.20
2023-08-17T00:26:04.898Z,78.10
2023-08-17T00:28:31.713Z,78.10
2023-08-17T00:30:58.427Z,78.10
2023-08-17T00:33:25.080Z,78.10
2023-08-17T00:35:51.901Z,78.10
2023-08-17T00:38:18.858Z,78.10
2023-08-17T00:40:45.639Z,78.10
2023-08-17T00:43:12.282Z,78.10
2023-08-17T00:45:39.045Z,78.20
2023-08-17T00:48:08.789Z,78.10
2023-08-17T00:50:37.592Z,78.20
2023-08-17T00:53:05.086Z,78.10
2023-08-17T00:55:32.081Z,78.10
2023-08-17T00:57:59.520Z,78.20
2023-08-17T01:00:29.355Z,78.10
2023-08-17T01:02:56.684Z,78.10
2023-08-17T01:05:24.745Z,78.10
2023-08-17T01:07:51.424Z,78.00
2023-08-17T01:10:18.458Z,78.20
2023-08-17T01:13:00.215Z,78.10
2023-08-17T01:15:38.198Z,78.10
2023-08-17T01:18:36.934Z,78.10
2023-08-17T01:21:07.109Z,78.10
2023-08-17T01:23:33.778Z,78.10
2023-08-17T01:26:00.406Z,78.00
2023-08-17T01:28:27.806Z,78.00
2023-08-17T01:31:01.592Z,78.10
2023-08-17T01:33:49.318Z,78.30
2023-08-17T01:36:27.303Z,78.10
2023-08-17T01:38:56.649Z,78.00
2023-08-17T01:41:25.587Z,78.00
2023-08-17T01:43:52.875Z,78.00
2023-08-17T01:46:19.929Z,78.00
2023-08-17T01:48:47.312Z,78.00
2023-08-17T01:51:21.899Z,78.10
2023-08-17T01:53:49.095Z,78.00
2023-08-17T01:56:16.000Z,78.00
2023-08-17T01:58:42.874Z,78.00
2023-08-17T02:01:09.744Z,78.00
2023-08-17T02:03:36.733Z,78.00
2023-08-17T02:06:03.483Z,78.70
2023-08-17T02:08:31.290Z,78.00
2023-08-17T02:10:57.982Z,78.00
2023-08-17T02:13:24.935Z,78.00
2023-08-17T02:15:51.677Z,78.00
2023-08-17T02:18:18.340Z,78.00
2023-08-17T02:20:45.003Z,78.00
2023-08-17T02:23:12.024Z,78.00
2023-08-17T02:25:39.896Z,78.00
2023-08-17T02:28:06.730Z,78.70
2023-08-17T02:30:34.048Z,78.00
2023-08-17T02:33:00.959Z,77.90
2023-08-17T02:35:27.713Z,77.90
2023-08-17T02:37:54.504Z,78.00
2023-08-17T02:40:21.516Z,77.90
2023-08-17T02:42:48.351Z,78.00
2023-08-17T02:45:15.069Z,77.90
2023-08-17T02:47:41.769Z,77.90
2023-08-17T02:50:08.906Z,77.90
2023-08-17T02:52:35.625Z,77.80
2023-08-17T02:55:02.251Z,77.80
2023-08-17T02:57:28.877Z,77.80
2023-08-17T02:59:55.513Z,77.80
2023-08-17T03:02:22.307Z,77.90
2023-08-17T03:04:49.004Z,77.90
2023-08-17T03:07:15.777Z,77.90
2023-08-17T03:09:42.420Z,77.90
2023-08-17T03:12:09.092Z,77.90
2023-08-17T03:14:35.810Z,77.90
2023-08-17T03:17:02.626Z,77.90
2023-08-17T03:19:29.297Z,77.90
2023-08-17T03:21:55.931Z,77.90
2023-08-17T03:24:22.706Z,77.90
2023-08-17T03:26:49.406Z,77.90
2023-08-17T03:29:16.116Z,77.90
2023-08-17T03:31:42.875Z,77.90
2023-08-17T03:34:09.547Z,77.90
2023-08-17T03:36:36.273Z,77.90
2023-08-17T03:39:03.078Z,77.90
2023-08-17T03:41:29.806Z,77.90
2023-08-17T03:43:56.457Z,77.90
2023-08-17T03:46:23.199Z,77.90
2023-08-17T03:48:49.910Z,77.80
2023-08-17T03:51:16.597Z,77.80
2023-08-17T03:53:43.287Z,77.80
2023-08-17T03:56:09.941Z,77.80
2023-08-17T03:58:36.702Z,77.90
2023-08-17T04:01:04.288Z,77.80
2023-08-17T04:03:31.125Z,77.80
2023-08-17T04:05:57.761Z,77.80
2023-08-17T04:08:24.459Z,77.80
2023-08-17T04:10:51.136Z,77.80
2023-08-17T04:13:17.769Z,77.80
2023-08-17T04:15:44.412Z,77.80
2023-08-17T04:18:11.278Z,77.80
2023-08-17T04:20:37.946Z,77.80
2023-08-17T04:23:04.795Z,77.80
2023-08-17T04:25:31.479Z,77.80
2023-08-17T04:27:58.133Z,77.80
2023-08-17T04:30:24.861Z,77.80
2023-08-17T04:32:53.820Z,77.80
2023-08-17T04:35:21.341Z,77.80
2023-08-17T04:37:48.415Z,77.80
2023-08-17T04:40:15.691Z,77.80
2023-08-17T04:42:42.652Z,77.80
2023-08-17T04:45:09.752Z,77.30
2023-08-17T04:47:36.470Z,77.80
2023-08-17T04:50:03.291Z,77.80
2023-08-17T04:52:29.975Z,77.80
2023-08-17T04:54:56.605Z,77.80
2023-08-17T04:57:23.302Z,77.80
2023-08-17T04:59:49.944Z,77.80
2023-08-17T05:02:16.720Z,77.80
2023-08-17T05:04:43.424Z,77.80
2023-08-17T05:07:10.143Z,77.80
2023-08-17T05:09:36.794Z,77.80
2023-08-17T05:12:03.651Z,77.90
2023-08-17T05:14:31.298Z,77.80
2023-08-17T05:16:58.656Z,77.80
2023-08-17T05:19:25.314Z,77.80
2023-08-17T05:21:52.341Z,77.80
2023-08-17T05:24:21.403Z,77.80
2023-08-17T05:26:48.308Z,77.80
2023-08-17T05:29:14.999Z,77.80
2023-08-17T05:31:42.224Z,77.80
2023-08-17T05:34:09.015Z,77.80
2023-08-17T05:36:35.736Z,77.80
2023-08-17T05:39:02.440Z,77.80
2023-08-17T05:41:29.113Z,77.80
2023-08-17T05:43:56.316Z,77.80
2023-08-17T05:46:23.011Z,77.80
2023-08-17T05:48:49.942Z,77.80
2023-08-17T05:51:16.630Z,77.90
2023-08-17T05:53:43.293Z,77.80
2023-08-17T05:56:09.906Z,77.80
2023-08-17T05:58:36.579Z,77.80
2023-08-17T06:01:11.222Z,77.80
2023-08-17T06:03:38.613Z,77.80
2023-08-17T06:06:06.509Z,77.80
2023-08-17T06:08:33.674Z,77.80
2023-08-17T06:11:00.342Z,77.80
2023-08-17T06:13:27.038Z,77.80
2023-08-17T06:15:54.079Z,77.80
2023-08-17T06:18:22.465Z,77.80
2023-08-17T06:20:51.748Z,77.20
2023-08-17T06:23:18.419Z,77.80
2023-08-17T06:25:45.100Z,77.80
2023-08-17T06:28:11.821Z,77.80
2023-08-17T06:30:38.636Z,77.80
2023-08-17T06:33:05.942Z,77.80
2023-08-17T06:35:32.705Z,77.80
2023-08-17T06:37:59.489Z,77.80
2023-08-17T06:40:26.403Z,77.80
2023-08-17T06:42:55.263Z,77.80
2023-08-17T06:45:23.485Z,77.80
2023-08-17T06:47:50.217Z,77.80
2023-08-17T06:50:17.065Z,77.80
2023-08-17T06:52:43.769Z,77.80
2023-08-17T06:55:11.527Z,77.80
2023-08-17T06:57:38.435Z,77.80
2023-08-17T07:00:08.751Z,77.80
2023-08-17T07:02:46.630Z,77.80
2023-08-17T07:05:19.525Z,77.80
2023-08-17T07:07:46.309Z,77.80
2023-08-17T07:10:13.096Z,77.80
2023-08-17T07:12:40.599Z,77.90
2023-08-17T07:15:08.521Z,77.80
2023-08-17T07:17:35.540Z,77.80
2023-08-17T07:22:32.180Z,77.80
2023-08-17T07:24:58.977Z,77.80
2023-08-17T07:27:26.501Z,77.80
2023-08-17T07:29:53.491Z,77.80
2023-08-17T07:32:20.239Z,77.80
2023-08-17T07:34:46.906Z,77.80
2023-08-17T07:37:15.952Z,77.80
2023-08-17T07:39:42.884Z,77.80
2023-08-17T07:42:09.750Z,77.70
2023-08-17T07:44:36.694Z,77.70
2023-08-17T07:47:03.548Z,77.70
2023-08-17T07:49:32.967Z,77.70
2023-08-17T07:52:00.408Z,77.70
2023-08-17T07:54:27.198Z,77.70
2023-08-17T07:56:53.883Z,77.70
2023-08-17T07:59:20.621Z,77.70
2023-08-17T08:01:47.338Z,77.70
2023-08-17T08:04:14.087Z,77.60
2023-08-17T08:06:40.770Z,77.60
2023-08-17T08:09:08.108Z,77.70
2023-08-17T08:11:35.041Z,77.60
2023-08-17T08:14:01.846Z,77.60
2023-08-17T08:16:31.567Z,77.60
2023-08-17T08:18:58.794Z,77.70
2023-08-17T08:21:25.441Z,77.60
2023-08-17T08:23:52.076Z,77.60
2023-08-17T08:26:18.798Z,77.60
2023-08-17T08:28:45.823Z,77.60
2023-08-17T08:31:12.500Z,77.60
2023-08-17T08:33:39.197Z,77.60
2023-08-17T08:36:07.124Z,77.60
2023-08-17T08:38:33.930Z,77.70
2023-08-17T08:41:01.308Z,77.60
2023-08-17T08:43:27.947Z,77.60
2023-08-17T08:45:56.498Z,77.60
2023-08-17T08:48:27.067Z,77.60
2023-08-17T08:50:56.275Z,77.60
2023-08-17T08:53:36.260Z,77.60
2023-08-17T08:56:04.885Z,77.50
2023-08-17T08:58:34.000Z,77.50
2023-08-17T09:01:02.049Z,77.60
2023-08-17T09:03:29.440Z,77.50
2023-08-17T09:05:57.250Z,77.50
2023-08-17T09:08:28.199Z,77.60
2023-08-17T09:10:54.952Z,77.60
2023-08-17T09:13:21.938Z,77.50
2023-08-17T09:15:48.632Z,77.60
2023-08-17T09:18:16.971Z,77.60
2023-08-17T09:20:48.825Z,77.60
2023-08-17T09:23:21.827Z,77.50
2023-08-17T09:25:50.414Z,77.50
2023-08-17T09:28:19.071Z,77.50
2023-08-17T09:31:04.742Z,77.50
2023-08-17T09:33:32.609Z,77.50
2023-08-17T09:36:00.800Z,77.60
2023-08-17T09:38:30.606Z,77.60
2023-08-17T09:40:59.043Z,77.60
2023-08-17T09:43:30.017Z,77.50
2023-08-17T09:45:57.076Z,77.50
2023-08-17T09:48:25.930Z,77.60
2023-08-17T09:50:52.570Z,77.50
2023-08-17T09:53:19.764Z,77.60
2023-08-17T09:55:47.258Z,77.60
2023-08-17T09:58:18.189Z,77.60
2023-08-17T10:00:50.418Z,77.60
2023-08-17T10:03:19.641Z,77.60
2023-08-17T10:05:59.940Z,77.60
2023-08-17T10:08:31.266Z,77.60
2023-08-17T10:10:59.066Z,77.60
2023-08-17T10:13:40.787Z,77.60
2023-08-17T10:16:30.059Z,77.60
2023-08-17T10:19:09.029Z,77.70
2023-08-17T10:21:40.793Z,77.70
2023-08-17T10:24:08.796Z,77.70
2023-08-17T10:26:35.680Z,77.70
2023-08-17T10:29:12.681Z,77.70
2023-08-17T10:31:40.589Z,77.60
2023-08-17T10:34:07.615Z,77.70
2023-08-17T10:36:34.820Z,77.70
2023-08-17T10:39:29.751Z,77.80
2023-08-17T10:41:58.445Z,77.70
2023-08-17T10:44:45.762Z,77.80
2023-08-17T10:47:26.609Z,77.60
2023-08-17T10:50:00.746Z,77.80
2023-08-17T10:52:29.297Z,77.70
2023-08-17T10:54:57.219Z,77.70
2023-08-17T10:57:43.636Z,77.60
2023-08-17T11:00:33.141Z,77.70
2023-08-17T11:03:08.583Z,77.80
2023-08-17T11:05:51.081Z,77.70
2023-08-17T11:08:43.258Z,77.80
2023-08-17T11:11:14.650Z,77.70
2023-08-17T11:13:46.005Z,77.70
2023-08-17T11:16:17.906Z,77.80
2023-08-17T11:18:45.761Z,78.50
2023-08-17T11:21:18.922Z,77.80
2023-08-17T11:23:46.736Z,77.80
2023-08-17T11:26:17.693Z,77.80
2023-08-17T11:28:45.681Z,77.90
2023-08-17T11:31:14.791Z,77.90
2023-08-17T11:33:41.564Z,77.80
2023-08-17T11:36:12.442Z,77.80
2023-08-17T11:38:42.115Z,77.90
2023-08-17T11:41:10.033Z,77.90
2023-08-17T11:43:37.669Z,77.90
2023-08-17T11:46:04.991Z,77.90
2023-08-17T11:48:36.618Z,77.90
2023-08-17T11:51:04.962Z,77.90
2023-08-17T11:53:36.127Z,77.90
2023-08-17T11:56:06.757Z,77.90
2023-08-17T11:58:46.334Z,77.90
2023-08-17T12:01:14.356Z,77.90
2023-08-17T12:03:42.821Z,77.90
2023-08-17T12:06:10.708Z,77.90
2023-08-17T12:08:37.452Z,77.90
2023-08-17T12:11:04.974Z,77.90
2023-08-17T12:13:35.783Z,77.90
2023-08-17T12:16:04.136Z,77.90
2023-08-17T12:18:33.731Z,77.90
2023-08-17T12:21:00.489Z,77.90
2023-08-17T12:23:27.171Z,77.90
2023-08-17T12:25:55.974Z,78.00
2023-08-17T12:28:24.181Z,78.00
2023-08-17T12:31:02.401Z,77.90
2023-08-17T12:33:29.927Z,77.90
2023-08-17T12:35:57.145Z,78.00
2023-08-17T12:38:25.725Z,77.90
2023-08-17T12:40:52.388Z,78.00
2023-08-17T12:43:19.090Z,78.00
2023-08-17T12:45:45.745Z,78.10
2023-08-17T12:48:12.432Z,78.00
2023-08-17T12:50:43.462Z,78.00
2023-08-17T12:53:10.399Z,78.10
2023-08-17T12:55:37.248Z,78.10
2023-08-17T12:58:04.213Z,78.20
2023-08-17T13:00:30.965Z,78.10
2023-08-17T13:02:57.668Z,78.10
2023-08-17T13:05:24.476Z,78.20
2023-08-17T13:07:51.168Z,78.20
2023-08-17T13:10:17.950Z,78.20
2023-08-17T13:12:44.649Z,78.20
2023-08-17T13:15:11.288Z,78.20
2023-08-17T13:17:38.049Z,78.10
2023-08-17T13:20:07.070Z,78.30
2023-08-17T13:22:34.027Z,78.20
2023-08-17T13:25:00.704Z,78.20
2023-08-17T13:27:28.455Z,78.30
2023-08-17T13:29:55.150Z,78.30
2023-08-17T13:32:21.870Z,78.30
2023-08-17T13:34:48.570Z,78.20
2023-08-17T13:37:15.215Z,78.30
2023-08-17T13:39:41.884Z,78.30
2023-08-17T13:42:08.692Z,78.20
2023-08-17T13:44:35.437Z,78.30
2023-08-17T13:47:02.151Z,78.30
2023-08-17T13:49:29.070Z,78.30
2023-08-17T13:51:57.462Z,78.30
2023-08-17T13:54:24.896Z,78.30
2023-08-17T13:56:52.287Z,78.30
2023-08-17T13:59:18.972Z,78.40
2023-08-17T14:01:45.744Z,78.50
2023-08-17T14:04:13.439Z,78.30
2023-08-17T14:06:40.594Z,78.40
2023-08-17T14:09:08.013Z,78.40
2023-08-17T14:11:34.681Z,78.50
2023-08-17T14:14:01.375Z,78.50
2023-08-17T14:16:28.171Z,78.40
2023-08-17T14:18:55.846Z,78.50
2023-08-17T14:21:22.745Z,78.50
2023-08-17T14:23:50.211Z,78.50
2023-08-17T14:26:16.873Z,78.50
2023-08-17T14:28:45.109Z,78.50
2023-08-17T14:31:18.269Z,78.50
2023-08-17T14:33:48.669Z,78.60
2023-08-17T14:36:19.621Z,78.50
2023-08-17T14:38:46.538Z,78.50
2023-08-17T14:41:13.521Z,78.60
2023-08-17T14:43:40.208Z,78.50
2023-08-17T14:46:07.134Z,78.50
2023-08-17T14:48:33.891Z,78.60
2023-08-17T14:51:00.640Z,78.60
2023-08-17T14:53:27.371Z,78.50
2023-08-17T14:55:54.068Z,78.50
2023-08-17T14:58:23.680Z,78.50
2023-08-17T15:00:50.320Z,78.40
2023-08-17T15:03:17.123Z,78.50
2023-08-17T15:05:43.863Z,78.50
2023-08-17T15:08:10.524Z,78.60
2023-08-17T15:10:37.207Z,78.50
2023-08-17T15:13:04.074Z,78.50
2023-08-17T15:15:30.748Z,78.60
2023-08-17T15:17:57.465Z,78.60
2023-08-17T15:20:24.445Z,78.60
2023-08-17T15:22:51.070Z,79.40
2023-08-17T15:25:17.998Z,78.70
2023-08-17T15:27:44.657Z,78.50
2023-08-17T15:30:11.663Z,78.70
2023-08-17T15:32:38.371Z,78.60
2023-08-17T15:35:05.521Z,78.60
2023-08-17T15:37:32.255Z,78.60
2023-08-17T15:39:58.905Z,78.60
2023-08-17T15:42:25.912Z,78.50
2023-08-17T15:44:53.095Z,78.60
2023-08-17T15:47:19.897Z,78.70
2023-08-17T15:49:46.924Z,78.70
2023-08-17T15:52:15.532Z,79.30
2023-08-17T15:54:42.418Z,78.70
2023-08-17T15:57:10.056Z,78.70
2023-08-17T15:59:37.191Z,78.60
2023-08-17T16:02:03.892Z,78.70
2023-08-17T16:04:30.594Z,78.60
2023-08-17T16:06:57.294Z,78.70
2023-08-17T16:09:23.992Z,78.60
2023-08-17T16:11:50.673Z,78.60
2023-08-17T16:14:17.534Z,78.70
2023-08-17T16:16:44.333Z,78.70
2023-08-17T16:19:11.138Z,78.70
2023-08-17T16:21:38.653Z,78.70
2023-08-17T16:24:05.992Z,78.70
2023-08-17T16:26:35.484Z,78.70
2023-08-17T16:29:02.578Z,78.80
2023-08-17T16:31:29.550Z,78.60
2023-08-17T16:33:56.280Z,78.70
2023-08-17T16:36:23.005Z,78.70
2023-08-17T16:41:21.674Z,78.70
2023-08-17T16:43:49.076Z,78.70
2023-08-17T16:46:16.406Z,78.70
2023-08-17T16:48:43.196Z,78.70
2023-08-17T16:51:09.960Z,78.70
2023-08-17T16:53:36.768Z,78.80
2023-08-17T16:56:03.714Z,78.80
2023-08-17T16:58:30.411Z,78.90
2023-08-17T17:00:57.135Z,78.90
2023-08-17T17:03:23.864Z,78.90
2023-08-17T17:05:50.496Z,78.90
2023-08-17T17:08:17.181Z,78.80
2023-08-17T17:10:43.834Z,78.90
2023-08-17T17:13:10.537Z,78.80
2023-08-17T17:15:37.327Z,78.80
2023-08-17T17:18:04.107Z,78.80
2023-08-17T17:20:31.988Z,78.80
2023-08-17T17:22:58.906Z,78.80
2023-08-17T17:25:25.649Z,79.10
2023-08-17T17:27:52.310Z,78.70
2023-08-17T17:30:18.980Z,78.70
2023-08-17T17:32:45.693Z,78.70
2023-08-17T17:35:12.400Z,78.70
2023-08-17T17:37:39.043Z,78.80
2023-08-17T17:40:06.935Z,78.70
2023-08-17T17:42:33.596Z,78.70
2023-08-17T17:45:00.248Z,78.60
2023-08-17T17:47:27.468Z,78.70
2023-08-17T17:49:54.501Z,78.70
2023-08-17T17:52:21.260Z,78.70
2023-08-17T17:54:47.938Z,78.70
2023-08-17T17:57:14.628Z,78.70
2023-08-17T17:59:41.322Z,78.70
2023-08-17T18:02:08.066Z,78.60
2023-08-17T18:04:34.845Z,78.60
2023-08-17T18:07:01.509Z,78.60
2023-08-17T18:09:28.249Z,78.60
2023-08-17T18:11:54.945Z,78.60
2023-08-17T18:14:21.697Z,78.60
2023-08-17T18:16:48.373Z,78.60
2023-08-17T18:19:15.465Z,78.60
2023-08-17T18:21:42.137Z,78.50
2023-08-17T18:24:08.881Z,78.60
2023-08-17T18:26:35.558Z,78.60
2023-08-17T18:29:04.091Z,78.50
2023-08-17T18:31:30.948Z,78.60
2023-08-17T18:33:57.678Z,78.60
2023-08-17T18:36:25.195Z,78.50
2023-08-17T18:38:51.867Z,78.50
2023-08-17T18:41:18.499Z,78.50
2023-08-17T18:43:45.218Z,78.50
2023-08-17T18:46:12.108Z,78.50
2023-08-17T18:48:38.781Z,78.50
2023-08-17T18:51:05.474Z,78.50
2023-08-17T18:53:32.127Z,78.40
2023-08-17T18:55:58.776Z,78.50
2023-08-17T18:58:26.527Z,78.50
2023-08-17T19:00:53.208Z,78.40
2023-08-17T19:03:20.100Z,78.40
2023-08-17T19:05:47.024Z,78.40
2023-08-17T19:08:16.114Z,78.40
2023-08-17T19:10:42.886Z,78.40
2023-08-17T19:13:09.571Z,78.40
2023-08-17T19:15:36.313Z,78.40
2023-08-17T19:18:03.201Z,78.40
2023-08-17T19:20:29.926Z,78.50
2023-08-17T19:22:56.958Z,78.40
2023-08-17T19:25:24.322Z,78.40
2023-08-17T19:27:51.083Z,78.40
2023-08-17T19:30:18.888Z,78.40
2023-08-17T19:32:46.169Z,78.50
2023-08-17T19:35:14.184Z,78.50
2023-08-17T19:37:42.133Z,78.30
2023-08-17T19:40:09.175Z,78.40
2023-08-17T19:42:35.856Z,78.40
2023-08-17T19:45:02.665Z,78.40
2023-08-17T19:47:29.488Z,78.50
2023-08-17T19:49:56.399Z,78.40
2023-08-17T19:52:24.180Z,78.40
2023-08-17T19:54:52.967Z,78.40
2023-08-17T19:57:23.099Z,78.40
2023-08-17T19:59:49.795Z,78.50
2023-08-17T20:02:16.586Z,78.40
2023-08-17T20:04:43.352Z,78.40
2023-08-17T20:07:10.247Z,78.40
2023-08-17T20:09:37.198Z,78.40
2023-08-17T20:12:04.190Z,78.50
2023-08-17T20:14:30.903Z,78.40
2023-08-17T20:16:57.591Z,78.40
2023-08-17T20:19:24.213Z,78.40
2023-08-17T20:21:50.839Z,78.40
2023-08-17T20:24:17.490Z,78.40
2023-08-17T20:26:44.615Z,78.40
2023-08-17T20:29:12.474Z,78.40
2023-08-17T20:31:39.432Z,78.40
2023-08-17T20:34:06.430Z,78.40
2023-08-17T20:36:33.211Z,78.40
2023-08-17T20:39:10.575Z,78.40
2023-08-17T20:41:37.678Z,78.40
2023-08-17T20:44:04.785Z,78.40
2023-08-17T20:46:31.822Z,78.40
2023-08-17T20:48:58.957Z,78.40
2023-08-17T20:51:26.667Z,78.40
2023-08-17T20:53:54.283Z,78.50
2023-08-17T20:56:21.644Z,78.40
2023-08-17T20:58:48.401Z,78.40
2023-08-17T21:01:17.349Z,78.40
2023-08-17T21:03:44.395Z,78.40
2023-08-17T21:06:11.192Z,78.40
2023-08-17T21:08:38.078Z,78.40
2023-08-17T21:11:05.212Z,78.40
2023-08-17T21:13:33.278Z,78.40
2023-08-17T21:16:18.596Z,78.40
2023-08-17T21:18:45.395Z,78.40
2023-08-17T21:21:12.032Z,78.40
2023-08-17T21:23:38.635Z,78.40
2023-08-17T21:26:05.325Z,78.40
2023-08-17T21:28:31.999Z,78.40
2023-08-17T21:31:03.228Z,78.40
2023-08-17T21:33:30.422Z,78.40
2023-08-17T21:36:00.780Z,78.40
2023-08-17T21:38:27.993Z,77.80
2023-08-17T21:41:01.732Z,78.40
2023-08-17T21:43:29.410Z,78.40
2023-08-17T21:46:00.884Z,78.40
2023-08-17T21:48:28.190Z,78.40
2023-08-17T21:50:55.301Z,78.50
2023-08-17T21:53:22.564Z,78.40
2023-08-17T21:55:50.206Z,78.40
2023-08-17T21:58:18.426Z,78.40
2023-08-17T22:00:46.399Z,78.40
2023-08-17T22:03:14.650Z,78.40
2023-08-17T22:05:46.121Z,78.40
2023-08-17T22:08:13.181Z,78.40
2023-08-17T22:10:39.974Z,78.40
2023-08-17T22:13:06.727Z,78.40
2023-08-17T22:15:33.477Z,78.40
2023-08-17T22:18:00.993Z,78.40
2023-08-17T22:20:27.789Z,78.40
2023-08-17T22:22:54.418Z,78.40
2023-08-17T22:25:21.154Z,78.40
2023-08-17T22:27:48.599Z,78.40
2023-08-17T22:30:15.301Z,78.40
2023-08-17T22:32:41.967Z,78.40
2023-08-17T22:35:11.231Z,78.40
2023-08-17T22:37:40.951Z,78.40
2023-08-17T22:40:07.943Z,78.50
2023-08-17T22:42:34.830Z,78.40
2023-08-17T22:45:01.761Z,78.40
2023-08-17T22:47:29.137Z,78.40
2023-08-17T22:49:56.133Z,78.40
2023-08-17T22:52:22.935Z,78.40
2023-08-17T22:54:49.948Z,78.40
2023-08-17T22:57:16.939Z,78.40
2023-08-17T22:59:43.959Z,78.40
2023-08-17T23:02:10.658Z,78.40
2023-08-17T23:04:37.445Z,78.40
2023-08-17T23:07:06.821Z,78.40
2023-08-17T23:09:36.297Z,78.40
2023-08-17T23:12:06.006Z,78.40
2023-08-17T23:14:32.716Z,78.40
2023-08-17T23:16:59.357Z,78.40
2023-08-17T23:19:26.018Z,78.30
2023-08-17T23:21:52.716Z,78.40
2023-08-17T23:24:19.482Z,78.30
2023-08-17T23:26:46.222Z,78.40
2023-08-17T23:29:12.862Z,78.40
2023-08-17T23:31:39.570Z,78.40
2023-08-17T23:34:06.370Z,78.40
2023-08-17T23:36:33.217Z,78.40
2023-08-17T23:38:59.927Z,78.90
2023-08-17T23:41:26.749Z,78.30
2023-08-17T23:43:53.467Z,78.30
2023-08-17T23:46:20.118Z,78.30
2023-08-17T23:48:46.836Z,78.20
2023-08-17T23:51:13.505Z,78.30
2023-08-17T23:53:40.140Z,78.30
2023-08-17T23:56:06.902Z,78.30
2023-08-17T23:58:33.546Z,78.30
